Time;durP1;ratioP1;P1;durP2;ratioP2;P2;SDS_P1;SDS_P2;PMS_P1;PMS_P2;Temp;Humidity;BMP_temperature;BMP_pressure;BME280_temperature;BME280_humidity;BME280_pressure;Samples;Min_cycle;Max_cycle;Signal;HPM_P1;HPM_P2
2021/09/28 00:00:36;;;;;;;43.60;25.00;;;;;;;13.09;84.85;100641.56;113872;1197;25096;-76
2021/09/28 00:03:06;;;;;;;39.50;23.50;;;;;;;13.09;84.97;100643.10;113801;1190;22414;-77
2021/09/28 00:05:34;;;;;;;42.20;24.10;;;;;;;13.11;85.25;100643.78;113853;1197;22456;-77
2021/09/28 00:08:02;;;;;;;42.70;24.40;;;;;;;13.13;85.45;100645.35;113849;1197;25017;-77
2021/09/28 00:10:31;;;;;;;40.60;24.80;;;;;;;13.15;85.48;100643.48;113818;1197;23158;-76
2021/09/28 00:13:01;;;;;;;40.20;25.50;;;;;;;13.18;85.58;100643.32;113877;1197;22431;-77
2021/09/28 00:15:30;;;;;;;43.60;26.80;;;;;;;13.20;85.61;100641.27;113783;1191;25152;-76
2021/09/28 00:17:57;;;;;;;48.30;26.30;;;;;;;13.21;85.69;100646.08;113848;1197;25061;-77
2021/09/28 00:20:26;;;;;;;48.00;28.20;;;;;;;13.24;85.71;100649.88;113798;1197;25156;-77
2021/09/28 00:22:54;;;;;;;45.80;26.90;;;;;;;13.24;85.93;100646.47;113802;1197;24070;-77
2021/09/28 00:25:22;;;;;;;42.90;26.20;;;;;;;13.26;86.18;100640.44;113775;1197;22430;-77
2021/09/28 00:28:00;;;;;;;;;;;;;;;;;;;;;
2021/09/28 00:30:28;;;;;;;44.00;26.40;;;;;;;13.32;86.30;100629.30;113862;1197;22896;-77
2021/09/28 00:32:56;;;;;;;43.70;26.30;;;;;;;13.34;86.42;100630.97;113822;1197;22463;-77
2021/09/28 00:35:24;;;;;;;42.00;26.10;;;;;;;13.36;86.32;100626.86;113834;1197;22443;-76
2021/09/28 00:37:52;;;;;;;45.70;26.00;;;;;;;13.37;86.38;100626.16;113827;1191;22590;-76
2021/09/28 00:40:32;;;;;;;;;;;;;;;;;;;;;
2021/09/28 00:43:01;;;;;;;42.50;25.60;;;;;;;13.39;86.28;100629.00;113703;1198;22440;-77
2021/09/28 00:45:28;;;;;;;40.30;23.60;;;;;;;13.41;86.21;100629.33;113786;1197;24198;-77
2021/09/28 00:47:57;;;;;;;41.60;24.70;;;;;;;13.40;86.09;100627.58;113764;1197;24082;-77
2021/09/28 00:50:26;;;;;;;38.70;24.80;;;;;;;13.41;86.17;100629.23;113840;1190;22546;-77
2021/09/28 00:52:54;;;;;;;39.70;22.60;;;;;;;13.41;85.98;100628.41;113790;1197;22442;-76
2021/09/28 00:55:27;;;;;;;38.60;23.40;;;;;;;13.39;85.96;100627.98;113788;1190;22526;-77
2021/09/28 00:57:56;;;;;;;42.00;24.30;;;;;;;13.37;85.85;100627.30;113888;1190;24040;-77
2021/09/28 01:00:25;;;;;;;39.80;23.90;;;;;;;13.35;85.88;100629.09;113803;1197;22457;-77
2021/09/28 01:02:55;;;;;;;42.40;22.90;;;;;;;13.34;85.78;100625.62;113808;1197;24132;-77
2021/09/28 01:05:23;;;;;;;41.70;23.50;;;;;;;13.33;85.78;100626.73;113855;1197;22978;-77
2021/09/28 01:07:51;;;;;;;37.50;23.30;;;;;;;13.32;85.91;100622.89;113774;1197;22464;-76
2021/09/28 01:10:19;;;;;;;35.60;21.60;;;;;;;13.31;85.84;100616.39;113734;1197;22428;-77
2021/09/28 01:12:47;;;;;;;35.30;21.20;;;;;;;13.29;85.69;100613.92;113790;1184;24085;-76
2021/09/28 01:15:16;;;;;;;36.90;21.10;;;;;;;13.26;85.66;100615.46;113818;1197;24180;-77
2021/09/28 01:17:44;;;;;;;40.90;23.20;;;;;;;13.24;85.63;100614.20;113848;1190;22716;-77
2021/09/28 01:20:13;;;;;;;41.80;23.10;;;;;;;13.24;85.56;100612.05;113819;1197;25148;-77
2021/09/28 01:22:41;;;;;;;40.70;24.10;;;;;;;13.21;85.57;100608.91;113925;1197;24072;-77
2021/09/28 01:25:11;;;;;;;42.10;24.70;;;;;;;13.19;85.51;100610.17;113942;1197;22448;-77
2021/09/28 01:27:40;;;;;;;39.20;23.60;;;;;;;13.16;85.40;100610.27;114574;1197;22629;-77
2021/09/28 01:30:12;;;;;;;40.70;23.30;;;;;;;13.13;85.37;100607.08;114806;1197;24366;-77
2021/09/28 01:32:40;;;;;;;38.50;22.40;;;;;;;13.11;85.30;100603.83;114371;1190;25230;-76
2021/09/28 01:35:09;;;;;;;37.90;21.90;;;;;;;13.09;85.11;100603.74;114241;1197;24062;-77
2021/09/28 01:37:37;;;;;;;35.40;22.60;;;;;;;13.05;84.98;100605.30;114152;1197;25139;-77
2021/09/28 01:40:07;;;;;;;39.20;23.40;;;;;;;13.01;85.00;100603.48;113799;1197;22480;-77
2021/09/28 01:42:35;;;;;;;36.90;22.00;;;;;;;12.98;85.08;100602.45;113916;1197;25058;-77
2021/09/28 01:45:03;;;;;;;37.00;22.30;;;;;;;12.96;84.88;100601.79;113838;1197;24100;-83
2021/09/28 01:47:32;;;;;;;41.90;23.10;;;;;;;12.91;84.85;100601.47;113886;1197;24160;-77
2021/09/28 01:50:01;;;;;;;37.90;22.40;;;;;;;12.89;85.01;100599.70;113715;1197;22604;-77
2021/09/28 01:52:29;;;;;;;39.40;21.80;;;;;;;12.86;84.88;100596.38;113822;1197;22562;-77
2021/09/28 01:54:57;;;;;;;38.20;22.30;;;;;;;12.83;84.78;100606.89;113791;1197;26181;-76
2021/09/28 01:57:25;;;;;;;39.40;22.30;;;;;;;12.81;84.88;100604.55;113859;1197;25184;-77
2021/09/28 01:59:53;;;;;;;37.10;23.00;;;;;;;12.77;85.28;100610.37;113902;1197;22830;-76
2021/09/28 02:02:20;;;;;;;41.50;21.90;;;;;;;12.74;85.34;100612.10;113861;1184;25166;-76
2021/09/28 02:04:48;;;;;;;40.30;22.30;;;;;;;12.71;85.32;100608.89;113809;1197;22422;-77
2021/09/28 02:07:16;;;;;;;37.10;21.70;;;;;;;12.70;85.33;100613.34;113796;1197;24135;-77
2021/09/28 02:09:44;;;;;;;36.40;20.80;;;;;;;12.66;85.03;100611.55;113727;1197;22449;-76
2021/09/28 02:12:12;;;;;;;38.10;20.50;;;;;;;12.63;84.85;100608.14;113770;1197;22441;-77
2021/09/28 02:14:40;;;;;;;35.50;21.00;;;;;;;12.58;84.68;100611.16;113741;1197;25227;-77
2021/09/28 02:17:10;;;;;;;41.80;22.40;;;;;;;12.54;84.87;100608.40;113831;1197;22609;-77
2021/09/28 02:19:38;;;;;;;38.10;22.10;;;;;;;12.52;85.29;100614.02;113845;1197;24090;-77
2021/09/28 02:22:06;;;;;;;39.20;21.00;;;;;;;12.53;85.12;100611.89;113786;1198;24171;-76
2021/09/28 02:24:54;;;;;;;35.20;19.10;;;;;;;12.53;85.22;100610.02;113719;1197;25264;-76
2021/09/28 02:27:23;;;;;;;34.70;20.20;;;;;;;12.54;85.14;100608.60;113788;1197;22553;-77
2021/09/28 02:29:51;;;;;;;36.70;19.40;;;;;;;12.52;85.05;100605.63;113794;1196;22584;-77
2021/09/28 02:32:19;;;;;;;35.10;20.20;;;;;;;12.51;85.06;100602.89;113812;1190;22446;-77
2021/09/28 02:34:47;;;;;;;33.70;18.80;;;;;;;12.48;84.90;100600.61;113760;1197;24154;-77
2021/09/28 02:37:17;;;;;;;33.00;18.70;;;;;;;12.48;85.18;100603.45;113873;1184;24076;-77
2021/09/28 02:39:45;;;;;;;35.80;17.20;;;;;;;12.47;85.31;100609.24;113915;1197;23351;-77
2021/09/28 02:42:14;;;;;;;32.50;17.30;;;;;;;12.45;85.28;100606.63;113823;1196;22440;-78
2021/09/28 02:44:42;;;;;;;36.70;17.80;;;;;;;12.44;85.36;100611.88;113825;1197;23567;-76
2021/09/28 02:47:10;;;;;;;33.50;16.80;;;;;;;12.43;85.53;100625.73;113851;1197;24236;-77
2021/09/28 02:49:38;;;;;;;30.90;16.50;;;;;;;12.40;85.44;100629.48;113810;1197;22478;-76
2021/09/28 02:52:07;;;;;;;31.60;17.50;;;;;;;12.37;85.66;100635.19;113837;1184;25117;-77
2021/09/28 02:54:35;;;;;;;33.70;17.40;;;;;;;12.31;85.74;100636.67;113826;1197;22416;-77
2021/09/28 02:57:03;;;;;;;35.50;17.90;;;;;;;12.27;85.91;100638.83;113825;1193;25261;-77
2021/09/28 02:59:32;;;;;;;32.10;16.20;;;;;;;12.25;86.01;100640.36;113717;1197;24084;-77
2021/09/28 03:02:03;;;;;;;31.50;18.00;;;;;;;12.25;86.16;100641.42;113825;1197;22580;-77
2021/09/28 03:04:31;;;;;;;31.90;18.20;;;;;;;12.24;85.86;100641.55;113782;1197;22428;-77
2021/09/28 03:07:00;;;;;;;30.30;16.00;;;;;;;12.23;86.08;100644.00;113780;1197;25017;-76
2021/09/28 03:09:28;;;;;;;31.80;17.10;;;;;;;12.24;86.25;100650.02;113820;1196;22468;-77
2021/09/28 03:12:16;;;;;;;31.50;16.90;;;;;;;12.24;86.26;100657.45;113818;1197;22460;-78
2021/09/28 03:14:44;;;;;;;30.30;16.70;;;;;;;12.23;86.41;100656.11;113794;1190;24213;-77
2021/09/28 03:17:12;;;;;;;32.40;18.20;;;;;;;12.23;86.38;100658.05;113808;1196;26010;-76
2021/09/28 03:19:40;;;;;;;34.30;18.20;;;;;;;12.26;86.52;100657.44;113808;1197;25745;-77
2021/09/28 03:22:09;;;;;;;34.80;19.00;;;;;;;12.29;86.69;100651.21;113817;1196;22427;-77
2021/09/28 03:24:37;;;;;;;34.90;18.60;;;;;;;12.31;86.66;100651.58;113830;1196;22415;-76
2021/09/28 03:27:06;;;;;;;29.20;16.90;;;;;;;12.34;86.97;100656.21;113786;1197;23478;-77
2021/09/28 03:29:34;;;;;;;35.30;18.60;;;;;;;12.37;87.02;100654.74;113798;1196;22549;-77
2021/09/28 03:32:04;;;;;;;37.40;17.70;;;;;;;12.41;86.99;100656.64;113988;1196;22531;-76
2021/09/28 03:34:33;;;;;;;32.40;18.70;;;;;;;12.44;87.14;100658.00;113822;1197;22431;-76
2021/09/28 03:37:00;;;;;;;33.30;17.70;;;;;;;12.46;87.36;100651.07;113799;1196;23294;-77
2021/09/28 03:39:28;;;;;;;36.20;18.80;;;;;;;12.50;87.14;100650.30;113801;1196;25022;-77
2021/09/28 03:41:56;;;;;;;36.60;20.70;;;;;;;12.54;87.40;100653.45;113854;1184;24196;-77
2021/09/28 03:44:24;;;;;;;40.30;22.80;;;;;;;12.57;87.53;100655.20;113766;1196;24188;-77
2021/09/28 03:46:52;;;;;;;39.50;22.50;;;;;;;12.60;87.47;100660.91;113886;1197;22501;-77
2021/09/28 03:49:20;;;;;;;37.50;21.00;;;;;;;12.64;87.55;100664.48;113795;1197;24049;-76
2021/09/28 03:51:49;;;;;;;36.10;19.90;;;;;;;12.68;87.76;100661.09;113820;1196;24060;-78
2021/09/28 03:54:17;;;;;;;38.00;18.90;;;;;;;12.72;87.66;100660.52;113763;1196;25022;-77
2021/09/28 03:56:47;;;;;;;32.70;18.80;;;;;;;12.76;87.62;100662.55;114069;1196;24082;-77
2021/09/28 03:59:15;;;;;;;32.50;17.90;;;;;;;12.79;87.59;100662.20;113933;1197;24098;-77
2021/09/28 04:01:43;;;;;;;36.50;17.70;;;;;;;12.82;87.63;100664.35;113863;1197;22461;-77
2021/09/28 04:04:11;;;;;;;32.50;16.90;;;;;;;12.85;87.71;100661.48;113783;1198;22426;-76
2021/09/28 04:06:39;;;;;;;28.50;15.80;;;;;;;12.88;87.67;100659.23;113829;1197;22434;-76
2021/09/28 04:09:07;;;;;;;33.70;17.10;;;;;;;12.90;87.72;100662.34;113804;1196;22429;-77
2021/09/28 04:11:35;;;;;;;32.80;17.90;;;;;;;12.92;87.68;100660.68;113847;1196;22463;-77
2021/09/28 04:14:03;;;;;;;33.90;16.90;;;;;;;12.94;87.75;100660.72;113821;1196;26450;-76
2021/09/28 04:16:32;;;;;;;30.10;15.90;;;;;;;12.96;87.77;100665.23;113795;1197;22433;-77
2021/09/28 04:19:10;;;;;;;;;;;;;;;;;;;;;
2021/09/28 04:21:39;;;;;;;29.20;16.10;;;;;;;13.00;87.99;100676.65;113759;1197;22537;-77
2021/09/28 04:24:08;;;;;;;34.30;16.60;;;;;;;13.02;87.91;100680.20;113844;1196;24064;-77
2021/09/28 04:26:36;;;;;;;32.30;17.10;;;;;;;13.05;88.08;100677.67;113911;1197;22453;-79
2021/09/28 04:29:04;;;;;;;30.60;16.80;;;;;;;13.07;88.13;100680.41;113968;1196;22997;-79
2021/09/28 04:31:32;;;;;;;32.60;16.30;;;;;;;13.09;88.10;100681.10;114155;1196;22416;-79
2021/09/28 04:34:00;;;;;;;28.80;15.90;;;;;;;13.10;88.17;100683.82;113953;1192;22459;-81
2021/09/28 04:36:29;;;;;;;30.10;15.80;;;;;;;13.12;88.19;100684.05;114528;1197;22480;-79
2021/09/28 04:39:00;;;;;;;31.50;16.00;;;;;;;13.14;88.28;100681.28;114524;1196;22469;-79
2021/09/28 04:41:28;;;;;;;34.40;16.90;;;;;;;13.16;88.33;100685.40;114478;1190;22450;-80
2021/09/28 04:43:56;;;;;;;29.30;15.00;;;;;;;13.19;88.27;100684.83;114425;1196;22421;-79
2021/09/28 04:46:24;;;;;;;31.50;15.00;;;;;;;13.21;88.34;100692.05;114526;1190;22436;-79
2021/09/28 04:48:53;;;;;;;30.30;15.60;;;;;;;13.23;88.37;100695.19;114282;1197;23667;-78
2021/09/28 04:51:21;;;;;;;31.90;15.70;;;;;;;13.25;88.35;100698.98;114074;1196;23200;-79
2021/09/28 04:53:49;;;;;;;32.40;14.40;;;;;;;13.26;88.30;100699.08;113981;1197;22423;-78
2021/09/28 04:56:18;;;;;;;27.50;13.90;;;;;;;13.27;88.20;100698.77;113789;1197;22553;-78
2021/09/28 04:58:47;;;;;;;33.30;15.20;;;;;;;13.29;88.31;100698.80;114112;1197;23554;-78
2021/09/28 05:01:18;;;;;;;32.50;15.50;;;;;;;13.32;88.20;100701.23;113976;1197;25120;-77
2021/09/28 05:03:47;;;;;;;28.20;14.20;;;;;;;13.34;88.23;100700.00;113930;1197;24988;-79
2021/09/28 05:06:15;;;;;;;26.70;14.50;;;;;;;13.35;88.17;100703.45;114022;1190;22413;-77
2021/09/28 05:08:43;;;;;;;28.70;13.90;;;;;;;13.37;88.08;100698.77;113932;1197;22453;-78
2021/09/28 05:11:12;;;;;;;29.20;14.10;;;;;;;13.38;88.08;100700.48;113876;1197;25209;-76
2021/09/28 05:13:41;;;;;;;25.30;13.80;;;;;;;13.39;88.07;100704.81;113982;1196;22466;-77
2021/09/28 05:16:10;;;;;;;25.50;12.80;;;;;;;13.40;88.07;100701.16;113928;1197;22457;-76
2021/09/28 05:18:38;;;;;;;29.60;13.40;;;;;;;13.43;88.18;100707.81;114344;1197;22408;-76
2021/09/28 05:21:06;;;;;;;26.70;12.90;;;;;;;13.43;88.22;100706.97;114025;1196;22431;-77
2021/09/28 05:23:34;;;;;;;34.20;12.80;;;;;;;13.44;88.13;100701.38;113877;1197;22889;-76
2021/09/28 05:26:02;;;;;;;25.70;13.00;;;;;;;13.45;88.08;100701.20;113988;1197;24094;-78
2021/09/28 05:28:31;;;;;;;25.40;12.50;;;;;;;13.48;88.01;100698.72;113936;1198;25477;-77
2021/09/28 05:30:59;;;;;;;26.70;11.20;;;;;;;13.49;88.12;100700.01;114001;1197;22453;-77
2021/09/28 05:33:29;;;;;;;28.00;14.60;;;;;;;13.50;88.06;100704.42;113993;1197;24081;-77
2021/09/28 05:36:07;;;;;;;;;;;;;;;;;;;;;
2021/09/28 05:38:36;;;;;;;26.00;11.80;;;;;;;13.52;88.24;100707.77;113886;1197;22414;-77
2021/09/28 05:41:06;;;;;;;23.90;11.30;;;;;;;13.53;88.22;100709.45;113862;1198;22553;-77
2021/09/28 05:43:34;;;;;;;25.00;11.80;;;;;;;13.55;88.25;100715.61;113878;1197;23279;-77
2021/09/28 05:46:03;;;;;;;25.30;10.90;;;;;;;13.56;88.26;100710.02;113930;1197;25360;-77
2021/09/28 05:48:31;;;;;;;26.40;12.70;;;;;;;13.58;88.36;100709.17;113838;1197;22804;-77
2021/09/28 05:51:00;;;;;;;27.10;12.60;;;;;;;13.61;88.24;100712.52;113931;1197;22575;-77
2021/09/28 05:53:35;;;;;;;23.50;10.80;;;;;;;13.63;88.38;100713.04;114161;1197;25190;-77
2021/09/28 05:56:05;;;;;;;25.60;11.20;;;;;;;13.67;88.41;100717.15;113920;1196;22466;-77
2021/09/28 05:58:33;;;;;;;21.60;10.10;;;;;;;13.71;88.34;100719.66;113932;1197;25020;-78
2021/09/28 06:01:01;;;;;;;27.00;12.00;;;;;;;13.74;88.23;100724.04;113922;1197;22460;-79
2021/09/28 06:03:29;;;;;;;27.80;11.30;;;;;;;13.77;88.19;100728.66;113938;1197;23991;-78
2021/09/28 06:05:58;;;;;;;25.00;10.40;;;;;;;13.80;88.22;100726.73;114033;1190;25077;-78
2021/09/28 06:08:26;;;;;;;27.20;12.40;;;;;;;13.83;88.02;100729.77;113896;1197;22497;-78
2021/09/28 06:10:55;;;;;;;24.30;10.40;;;;;;;13.84;87.88;100736.63;114009;1190;22442;-78
2021/09/28 06:13:24;;;;;;;24.40;11.30;;;;;;;13.85;87.98;100737.20;113960;1197;25214;-78
2021/09/28 06:15:53;;;;;;;23.50;10.60;;;;;;;13.87;87.84;100736.67;113955;1197;22928;-78
2021/09/28 06:18:24;;;;;;;20.80;9.20;;;;;;;13.89;87.98;100740.02;113932;1197;22423;-78
2021/09/28 06:20:52;;;;;;;22.50;9.50;;;;;;;13.91;87.79;100746.77;113943;1197;25174;-78
2021/09/28 06:23:20;;;;;;;29.90;11.30;;;;;;;13.94;87.85;100752.88;113971;1197;23221;-78
2021/09/28 06:25:48;;;;;;;25.00;11.20;;;;;;;13.95;87.84;100753.77;113917;1197;25343;-78
2021/09/28 06:28:18;;;;;;;24.50;11.80;;;;;;;13.96;87.68;100755.73;113904;1197;22497;-78
2021/09/28 06:30:48;;;;;;;23.80;11.70;;;;;;;13.97;87.94;100754.20;113915;1197;25119;-78
2021/09/28 06:33:16;;;;;;;32.50;14.80;;;;;;;13.99;87.97;100754.19;113891;1197;22440;-78
2021/09/28 06:35:44;;;;;;;28.40;16.10;;;;;;;14.02;87.96;100754.47;114035;1197;23004;-78
2021/09/28 06:38:12;;;;;;;27.20;12.80;;;;;;;14.05;88.17;100754.05;113888;1197;22412;-78
2021/09/28 06:40:43;;;;;;;29.70;13.60;;;;;;;14.07;87.97;100753.67;113853;1197;22443;-78
2021/09/28 06:43:11;;;;;;;26.80;12.30;;;;;;;14.09;87.93;100762.33;113883;1197;24223;-79
2021/09/28 06:45:39;;;;;;;25.20;10.90;;;;;;;14.12;87.95;100763.91;113832;1197;22443;-78
2021/09/28 06:48:07;;;;;;;29.90;11.90;;;;;;;14.15;88.04;100767.19;113824;1197;25375;-78
2021/09/28 06:50:35;;;;;;;31.50;9.90;;;;;;;14.14;87.60;100773.37;113965;1197;22524;-79
2021/09/28 06:53:07;;;;;;;25.40;11.00;;;;;;;14.12;87.27;100773.70;113907;1183;24075;-78
2021/09/28 06:55:37;;;;;;;24.10;10.50;;;;;;;14.12;87.41;100774.91;114051;1196;24092;-78
2021/09/28 06:58:05;;;;;;;33.90;13.20;;;;;;;14.14;87.46;100770.45;114073;1197;22448;-78
2021/09/28 07:00:36;;;;;;;28.00;11.90;;;;;;;14.16;87.43;100771.61;113927;1197;22439;-78
2021/09/28 07:03:05;;;;;;;29.60;14.10;;;;;;;14.16;87.37;100775.63;113931;1197;22473;-78
2021/09/28 07:05:33;;;;;;;26.60;12.50;;;;;;;14.18;87.44;100777.09;113969;1197;22386;-78
2021/09/28 07:08:02;;;;;;;26.00;12.50;;;;;;;14.18;87.47;100778.69;113944;1197;22469;-78
2021/09/28 07:10:30;;;;;;;25.60;10.90;;;;;;;14.19;87.46;100779.86;113960;1197;22403;-79
2021/09/28 07:12:58;;;;;;;21.20;9.60;;;;;;;14.20;87.25;100783.39;113847;1197;24073;-78
2021/09/28 07:15:29;;;;;;;23.00;10.10;;;;;;;14.22;87.32;100788.12;113960;1197;23712;-78
2021/09/28 07:17:58;;;;;;;24.50;10.50;;;;;;;14.24;87.27;100789.83;113937;1197;22429;-78
2021/09/28 07:20:27;;;;;;;22.30;10.50;;;;;;;14.25;87.18;100791.04;113967;1197;22537;-78
2021/09/28 07:22:55;;;;;;;23.80;9.20;;;;;;;14.27;87.16;100789.81;113893;1197;22640;-78
2021/09/28 07:25:25;;;;;;;22.70;9.90;;;;;;;14.29;87.12;100793.61;114080;1197;22480;-79
2021/09/28 07:27:58;;;;;;;27.40;10.40;;;;;;;14.33;86.84;100797.02;114342;1197;25135;-79
2021/09/28 07:30:27;;;;;;;26.10;9.80;;;;;;;14.35;86.99;100800.83;114206;1197;22610;-79
2021/09/28 07:32:56;;;;;;;24.00;10.40;;;;;;;14.37;86.84;100804.38;114335;1193;22470;-79
2021/09/28 07:35:26;;;;;;;22.10;9.00;;;;;;;14.39;86.69;100806.45;114357;1197;22434;-79
2021/09/28 07:37:56;;;;;;;23.20;9.40;;;;;;;14.40;86.47;100805.55;114327;1197;24014;-79
2021/09/28 07:40:26;;;;;;;25.10;8.90;;;;;;;14.44;86.64;100809.47;114373;1197;25110;-79
2021/09/28 07:42:55;;;;;;;24.90;10.10;;;;;;;14.46;86.43;100809.60;114414;1197;25058;-79
2021/09/28 07:45:25;;;;;;;27.10;9.20;;;;;;;14.47;86.50;100809.36;114406;1197;24519;-78
2021/09/28 07:47:54;;;;;;;21.40;8.70;;;;;;;14.51;86.45;100815.02;114390;1197;22413;-79
2021/09/28 07:50:23;;;;;;;21.30;10.20;;;;;;;14.53;86.40;100824.91;114333;1197;22436;-79
2021/09/28 07:52:53;;;;;;;23.80;9.70;;;;;;;14.55;86.36;100821.83;114361;1197;22460;-79
2021/09/28 07:55:24;;;;;;;22.00;8.60;;;;;;;14.56;86.19;100825.05;113989;1197;23139;-78
2021/09/28 07:57:52;;;;;;;22.50;9.00;;;;;;;14.58;86.23;100825.17;114080;1197;23545;-79
2021/09/28 08:00:21;;;;;;;24.70;9.40;;;;;;;14.59;86.15;100824.07;113878;1197;22450;-79
2021/09/28 08:02:49;;;;;;;22.90;8.50;;;;;;;14.59;85.99;100824.83;114095;1197;22425;-79
2021/09/28 08:05:17;;;;;;;20.00;7.90;;;;;;;14.61;86.23;100826.69;114383;1197;25796;-79
2021/09/28 08:07:45;;;;;;;20.60;9.00;;;;;;;14.62;86.25;100832.07;114341;1197;24137;-78
2021/09/28 08:10:15;;;;;;;23.10;10.70;;;;;;;14.62;86.09;100833.90;114315;1197;22557;-79
2021/09/28 08:12:43;;;;;;;;;;;;;;;14.62;85.90;100842.42;114491;1197;22417;-79
2021/09/28 08:15:13;;;;;;;27.00;10.00;;;;;;;14.62;86.08;100838.86;114413;1197;22379;-79
2021/09/28 08:17:42;;;;;;;;;;;;;;;14.63;85.99;100839.29;114528;1196;23887;-79
2021/09/28 08:20:16;;;;;;;22.10;9.50;;;;;;;14.64;86.12;100838.52;114468;1190;22600;-79
2021/09/28 08:22:45;;;;;;;23.50;9.90;;;;;;;14.66;86.21;100845.70;114723;1197;24062;-79
2021/09/28 08:25:16;;;;;;;29.70;10.70;;;;;;;14.68;86.18;100849.41;113984;1197;22401;-78
2021/09/28 08:30:31;;;;;;;25.40;11.20;;;;;;;14.73;85.99;100855.39;113884;1183;23645;-78
2021/09/28 08:33:00;;;;;;;29.90;10.90;;;;;;;14.75;85.88;100855.89;113929;1197;24233;-78
2021/09/28 08:35:28;;;;;;;26.30;11.40;;;;;;;14.78;85.99;100855.00;113854;1197;24072;-79
2021/09/28 08:37:56;;;;;;;25.30;10.60;;;;;;;14.79;85.73;100854.08;113894;1197;22423;-79
2021/09/28 08:40:23;;;;;;;29.00;10.40;;;;;;;14.78;85.86;100853.60;113888;1197;22713;-78
2021/09/28 08:42:54;;;;;;;22.80;10.20;;;;;;;14.80;85.95;100855.84;113968;1197;22427;-79
2021/09/28 08:45:23;;;;;;;21.60;9.50;;;;;;;14.82;85.75;100857.40;114162;1197;22446;-77
2021/09/28 08:47:51;;;;;;;23.30;10.00;;;;;;;14.83;85.64;100854.70;113953;1197;25017;-78
2021/09/28 08:50:22;;;;;;;22.40;9.40;;;;;;;14.83;85.48;100859.04;113903;1197;25112;-77
2021/09/28 08:52:52;;;;;;;27.40;11.10;;;;;;;14.86;85.43;100859.98;114106;1190;22417;-80
2021/09/28 08:55:22;;;;;;;23.50;9.40;;;;;;;14.86;85.44;100858.66;114361;1197;23248;-78
2021/09/28 08:57:51;;;;;;;24.30;10.50;;;;;;;14.90;85.33;100858.14;114495;1197;23659;-78
2021/09/28 09:00:25;;;;;;;24.80;11.00;;;;;;;14.93;85.59;100861.41;114263;1182;22439;-78
2021/09/28 09:02:53;;;;;;;20.50;9.90;;;;;;;14.93;85.24;100860.08;114290;1197;22495;-78
2021/09/28 09:05:22;;;;;;;23.90;10.40;;;;;;;14.97;85.20;100859.20;113932;1197;24086;-78
2021/09/28 09:08:04;;;;;;;23.50;9.80;;;;;;;15.02;85.48;100854.70;113975;1197;22435;-78
2021/09/28 09:10:34;;;;;;;24.80;11.40;;;;;;;15.09;85.54;100850.90;113907;1196;25193;-78
2021/09/28 09:13:03;;;;;;;27.50;10.90;;;;;;;15.16;85.66;100850.61;113936;1197;25267;-78
2021/09/28 09:15:34;;;;;;;27.70;10.50;;;;;;;15.24;85.55;100854.46;113916;1190;24101;-78
2021/09/28 09:18:02;;;;;;;;;;;;;;;15.33;85.52;100860.02;113916;1197;22764;-78
2021/09/28 09:20:40;;;;;;;31.60;13.00;;;;;;;15.40;85.43;100855.48;113961;1197;24047;-78
2021/09/28 09:23:22;;;;;;;24.80;12.40;;;;;;;15.47;85.25;100854.30;113928;1196;22517;-79
2021/09/28 09:26:08;;;;;;;28.60;11.90;;;;;;;15.55;84.97;100848.09;114000;1197;24157;-79
2021/09/28 09:28:41;;;;;;;36.10;14.00;;;;;;;15.62;84.69;100846.40;114044;1193;22486;-78
2021/09/28 09:31:32;;;;;;;;;;;;;;;;;;;;;
2021/09/28 09:34:09;;;;;;;31.90;13.90;;;;;;;15.81;84.71;100842.86;113913;1197;22434;-78
2021/09/28 09:36:38;;;;;;;34.80;15.20;;;;;;;15.94;84.99;100839.58;113952;1197;22414;-78
2021/09/28 09:39:10;;;;;;;35.30;14.10;;;;;;;16.08;84.91;100837.41;113890;1197;25652;-79
2021/09/28 09:41:40;;;;;;;32.70;14.80;;;;;;;16.21;84.77;100835.84;113864;1197;22549;-78
2021/09/28 09:44:10;;;;;;;33.10;15.00;;;;;;;16.34;84.74;100838.11;114044;1184;22445;-79
2021/09/28 09:46:43;;;;;;;40.40;15.70;;;;;;;16.45;84.55;100842.98;113921;1197;22425;-78
2021/09/28 09:49:14;;;;;;;37.00;17.20;;;;;;;16.51;83.97;100846.84;114130;1197;25331;-78
2021/09/28 09:51:44;;;;;;;36.30;17.70;;;;;;;16.56;83.69;100847.23;114128;1197;22582;-78
2021/09/28 09:54:14;;;;;;;43.90;17.40;;;;;;;16.63;83.64;100846.02;113957;1190;22471;-78
2021/09/28 09:56:45;;;;;;;267.90;166.60;;;;;;;16.70;83.61;100845.64;114103;1197;23942;-81
2021/09/28 09:59:17;;;;;;;51.90;28.00;;;;;;;16.76;83.38;100846.68;114235;1197;25009;-79
2021/09/28 10:01:45;;;;;;;60.00;28.90;;;;;;;16.79;82.98;100848.75;114137;1197;25219;-81
2021/09/28 10:04:16;;;;;;;42.10;19.60;;;;;;;16.82;83.06;100847.01;114591;1196;25297;-80
2021/09/28 10:06:44;;;;;;;37.90;16.90;;;;;;;16.87;82.98;100843.13;114648;1197;24074;-81
2021/09/28 10:09:18;;;;;;;38.00;17.60;;;;;;;16.93;83.19;100846.84;114487;1197;22420;-80
2021/09/28 10:11:56;;;;;;;34.20;16.70;;;;;;;17.00;82.74;100845.84;114578;1197;24054;-81
2021/09/28 10:14:35;;;;;;;41.50;19.60;;;;;;;17.05;82.73;100842.92;114471;1197;23222;-80
2021/09/28 10:17:39;;;;;;;36.60;18.20;;;;;;;17.12;82.64;100842.48;114428;1197;22456;-81
2021/09/28 10:20:10;;;;;;;45.00;19.60;;;;;;;17.20;82.31;100850.54;114576;1197;25454;-80
2021/09/28 10:22:41;;;;;;;39.00;19.00;;;;;;;17.24;82.08;100855.02;114463;1197;25042;-81
2021/09/28 10:25:37;;;;;;;41.90;19.90;;;;;;;17.26;81.51;100855.94;114552;1197;25550;-80
2021/09/28 10:28:31;;;;;;;41.80;20.10;;;;;;;17.25;81.24;100854.96;114456;1197;24041;-80
2021/09/28 10:31:01;;;;;;;45.20;21.00;;;;;;;17.27;81.48;100854.20;114505;1197;22424;-80
2021/09/28 10:33:36;;;;;;;38.40;17.20;;;;;;;17.34;81.92;100856.58;114486;1190;23984;-80
2021/09/28 10:36:08;;;;;;;41.90;18.50;;;;;;;17.42;82.08;100854.98;114429;1197;23151;-80
2021/09/28 10:38:53;;;;;;;38.20;19.50;;;;;;;17.51;81.80;100860.00;114492;1190;25996;-80
2021/09/28 10:41:49;;;;;;;42.10;21.10;;;;;;;17.56;81.18;100864.06;114526;1197;22791;-80
2021/09/28 10:44:48;;;;;;;41.40;20.20;;;;;;;17.60;81.20;100856.41;114669;1174;24047;-79
2021/09/28 10:47:46;;;;;;;44.80;21.50;;;;;;;17.64;80.64;100854.55;114593;1197;25160;-80
2021/09/28 10:50:34;;;;;;;46.40;22.00;;;;;;;17.68;80.84;100851.69;114618;1197;22484;-80
2021/09/28 10:53:06;;;;;;;43.60;20.60;;;;;;;17.76;81.01;100851.69;114659;1197;23023;-80
2021/09/28 10:55:40;;;;;;;43.30;21.00;;;;;;;17.83;80.90;100853.13;114761;1197;22432;-80
2021/09/28 10:58:14;;;;;;;59.00;22.30;;;;;;;17.89;80.63;100849.02;114745;1190;22460;-80
2021/09/28 11:01:09;;;;;;;46.30;22.10;;;;;;;17.93;80.22;100846.89;114753;1197;22861;-81
2021/09/28 11:06:58;;;;;;;49.30;23.00;;;;;;;18.09;80.20;100844.70;113214;1192;25014;-63
2021/09/28 11:09:47;;;;;;;42.00;20.40;;;;;;;18.17;79.79;100844.90;113278;1198;25255;-63
2021/09/28 11:12:18;;;;;;;44.60;19.90;;;;;;;18.27;79.89;100843.75;113291;1198;22440;-63
2021/09/28 11:14:46;;;;;;;42.50;19.30;;;;;;;18.38;80.26;100847.16;113128;1198;26300;-63
2021/09/28 11:17:19;;;;;;;41.00;19.40;;;;;;;18.51;80.04;100849.15;113198;1198;24202;-62
2021/09/28 11:19:47;;;;;;;40.60;19.60;;;;;;;18.60;79.32;100845.16;113054;1199;22414;-65
2021/09/28 11:22:23;;;;;;;41.50;18.50;;;;;;;18.65;79.16;100847.75;113021;1198;24117;-62
2021/09/28 11:24:52;;;;;;;35.70;18.90;;;;;;;18.71;79.13;100847.88;113065;1198;23563;-63
2021/09/28 11:27:21;;;;;;;40.10;19.30;;;;;;;18.76;78.86;100848.88;113130;1198;22620;-63
2021/09/28 11:29:50;;;;;;;40.40;19.20;;;;;;;18.81;78.26;100848.36;113208;1194;24211;-63